Time;durP1;ratioP1;P1;durP2;ratioP2;P2;SDS_P1;SDS_P2;PMS_P1;PMS_P2;Temp;Humidity;BMP_temperature;BMP_pressure;BME280_temperature;BME280_humidity;BME280_pressure;Samples;Min_cycle;Max_cycle;Signal;HPM_P1;HPM_P2
2024/04/07 00:02:07;;;;;;;;;;;;;;;16.19;55.38;101026.69;5065921;28;1287;-52
2024/04/07 00:04:32;;;;;;;;;;;;;;;16.11;55.35;101043.63;5057091;28;1115;-51
2024/04/07 00:06:58;;;;;;;;;;;;;;;17.16;54.44;101046.63;5076189;28;1906;-49
2024/04/07 00:09:24;;;;;;;;;;;;;;;17.54;53.15;101044.50;5077149;28;1099;-52
2024/04/07 00:11:49;;;;;;;;;;;;;;;16.81;54.65;101043.44;5056908;28;1078;-53
2024/04/07 00:14:15;;;;;;;;;;;;;;;16.52;55.05;101027.41;5059979;28;901;-51
2024/04/07 00:16:40;;;;;;;;;;;;;;;16.37;55.25;101025.41;5070056;28;1071;-51
2024/04/07 00:19:06;;;;;;;;;;;;;;;16.19;55.55;101017.63;5057127;28;1036;-53
2024/04/07 00:21:31;;;;;;;;;;;;;;;16.19;55.18;101012.97;5069492;28;1163;-51
2024/04/07 00:23:57;;;;;;;;;;;;;;;17.14;54.53;101016.69;5069158;28;1071;-53
2024/04/07 00:26:23;;;;;;;;;;;;;;;17.56;53.29;101017.56;5067966;28;1989;-50
2024/04/07 00:28:48;;;;;;;;;;;;;;;16.82;55.03;101014.91;5069132;28;1106;-52
2024/04/07 00:31:14;;;;;;;;;;;;;;;16.56;55.43;101001.09;5044884;28;1214;-51
2024/04/07 00:33:40;;;;;;;;;;;;;;;16.36;55.49;100985.34;5065043;28;1143;-52
2024/04/07 00:36:06;;;;;;;;;;;;;;;16.21;55.37;100975.09;5069668;28;1211;-52
2024/04/07 00:38:31;;;;;;;;;;;;;;;16.12;55.34;100975.84;5061464;28;955;-50
2024/04/07 00:40:57;;;;;;;;;;;;;;;16.52;55.87;100971.69;5069967;28;1156;-52
2024/04/07 00:43:23;;;;;;;;;;;;;;;17.86;52.87;100960.88;5056280;28;1087;-47
2024/04/07 00:45:49;;;;;;;;;;;;;;;17.19;54.10;100950.72;5074548;28;1897;-49
2024/04/07 00:48:17;;;;;;;;;;;;;;;16.71;55.15;100941.81;5064812;28;1050;-47
2024/04/07 00:50:46;;;;;;;;;;;;;;;16.43;55.50;100942.00;5056580;28;1156;-52
2024/04/07 00:53:13;;;;;;;;;;;;;;;16.29;55.48;100940.84;5068882;28;921;-50
2024/04/07 00:55:39;;;;;;;;;;;;;;;16.16;55.47;100950.41;5075980;28;1042;-49
2024/04/07 00:58:04;;;;;;;;;;;;;;;16.72;55.55;100948.97;5060375;28;1543;-53
2024/04/07 01:00:29;;;;;;;;;;;;;;;17.87;52.83;100951.53;5074127;28;1110;-48
2024/04/07 01:02:55;;;;;;;;;;;;;;;16.91;54.78;100947.41;5065572;28;1008;-51
2024/04/07 01:05:20;;;;;;;;;;;;;;;16.67;55.20;100946.22;5073255;28;1897;-51
2024/04/07 01:07:46;;;;;;;;;;;;;;;16.46;55.37;100950.81;5060180;28;1173;-51
2024/04/07 01:10:12;;;;;;;;;;;;;;;16.30;55.27;100949.88;5080410;28;1117;-50
2024/04/07 01:12:37;;;;;;;;;;;;;;;16.98;55.10;100941.63;5080113;28;1035;-53
2024/04/07 01:15:05;;;;;;;;;;;;;;;17.78;52.90;100932.84;5078790;28;858;-51
2024/04/07 01:17:30;;;;;;;;;;;;;;;16.92;54.70;100939.97;5067169;28;1170;-51
2024/04/07 01:19:56;;;;;;;;;;;;;;;16.62;55.49;100943.44;5072838;28;1110;-49
2024/04/07 01:22:22;;;;;;;;;;;;;;;16.40;55.58;100937.06;5060240;28;1119;-51
2024/04/07 01:24:47;;;;;;;;;;;;;;;16.31;55.48;100938.66;5072764;28;1086;-49
2024/04/07 01:27:13;;;;;;;;;;;;;;;16.23;55.06;100930.94;5079464;28;2038;-50
2024/04/07 01:29:38;;;;;;;;;;;;;;;16.31;55.73;100935.91;5079892;28;1054;-52
2024/04/07 01:32:04;;;;;;;;;;;;;;;17.73;53.61;100929.28;5080059;28;1106;-52
2024/04/07 01:34:30;;;;;;;;;;;;;;;17.33;54.13;100937.25;5046172;28;989;-52
2024/04/07 01:36:55;;;;;;;;;;;;;;;16.80;55.04;100936.63;5059638;28;1157;-51
2024/04/07 01:39:21;;;;;;;;;;;;;;;16.50;55.52;100924.47;5079306;28;976;-51
2024/04/07 01:41:46;;;;;;;;;;;;;;;16.32;55.58;100932.06;5079414;28;1066;-49
2024/04/07 01:44:12;;;;;;;;;;;;;;;16.21;55.48;100938.59;5073000;28;1209;-51
2024/04/07 01:46:37;;;;;;;;;;;;;;;16.13;55.48;100941.84;5072718;28;1914;-52
2024/04/07 01:49:03;;;;;;;;;;;;;;;16.44;55.87;100934.59;5073388;28;1509;-48
2024/04/07 01:51:28;;;;;;;;;;;;;;;17.81;53.42;100941.63;5079596;28;1184;-50
2024/04/07 01:53:54;;;;;;;;;;;;;;;17.15;54.50;100935.88;5078867;28;1083;-47
2024/04/07 01:56:19;;;;;;;;;;;;;;;16.68;55.52;100939.63;5066814;28;1126;-46
2024/04/07 01:58:45;;;;;;;;;;;;;;;16.42;55.58;100942.25;5072363;28;1084;-51
2024/04/07 02:01:10;;;;;;;;;;;;;;;16.31;55.83;100946.06;5060860;28;1054;-53
2024/04/07 02:03:36;;;;;;;;;;;;;;;16.20;55.58;100947.91;5079291;28;1046;-52
2024/04/07 02:06:02;;;;;;;;;;;;;;;16.95;55.46;100947.66;5079179;28;1905;-53
2024/04/07 02:08:28;;;;;;;;;;;;;;;17.89;53.02;100949.31;5078694;28;1181;-52
2024/04/07 02:10:53;;;;;;;;;;;;;;;16.96;55.09;100952.06;5079024;28;1141;-52
2024/04/07 02:13:19;;;;;;;;;;;;;;;16.62;55.44;100947.03;5077487;28;1087;-52
2024/04/07 02:15:44;;;;;;;;;;;;;;;16.48;55.35;100948.59;5069964;28;1155;-52
2024/04/07 02:18:10;;;;;;;;;;;;;;;16.30;55.66;100952.63;5074385;28;1007;-52
2024/04/07 02:20:36;;;;;;;;;;;;;;;16.23;55.45;100942.75;5059376;28;1088;-52
2024/04/07 02:23:02;;;;;;;;;;;;;;;17.02;55.10;100961.97;5063620;28;1124;-52
2024/04/07 02:25:28;;;;;;;;;;;;;;;17.77;53.38;100975.19;5076882;28;1913;-52
2024/04/07 02:27:53;;;;;;;;;;;;;;;16.89;55.25;100970.75;5063483;28;1067;-50
2024/04/07 02:30:19;;;;;;;;;;;;;;;16.58;55.62;100965.94;5078809;28;1066;-52
2024/04/07 02:32:45;;;;;;;;;;;;;;;16.40;55.82;100953.50;5060516;28;1178;-52
2024/04/07 02:35:12;;;;;;;;;;;;;;;16.28;55.63;100961.13;5069897;28;1205;-53
2024/04/07 02:37:37;;;;;;;;;;;;;;;16.15;55.71;100959.72;5062771;28;1055;-52
2024/04/07 02:40:03;;;;;;;;;;;;;;;16.61;55.96;100959.09;5040700;28;1067;-52
2024/04/07 02:42:29;;;;;;;;;;;;;;;17.87;53.37;100957.03;5071519;28;1486;-50
2024/04/07 02:50:23;;;;;;;;;;;;;;;16.36;55.80;100946.91;5066443;28;1074;-51
2024/04/07 02:52:48;;;;;;;;;;;;;;;16.27;55.79;100944.94;5068187;28;1151;-51
2024/04/07 02:55:14;;;;;;;;;;;;;;;16.21;55.56;100946.84;5065105;28;1175;-48
2024/04/07 02:57:39;;;;;;;;;;;;;;;16.53;55.85;100956.88;5077870;28;1047;-53
2024/04/07 03:00:05;;;;;;;;;;;;;;;17.79;53.63;100951.00;5075081;28;1091;-52
2024/04/07 03:02:31;;;;;;;;;;;;;;;17.02;54.99;100956.47;5065238;28;1155;-49
2024/04/07 03:04:56;;;;;;;;;;;;;;;16.58;55.71;100954.97;5064877;28;1239;-54
2024/04/07 03:07:22;;;;;;;;;;;;;;;16.39;55.94;100948.28;5077771;28;1976;-52
2024/04/07 03:09:52;;;;;;;;;;;;;;;16.21;55.90;100949.59;5064520;28;1082;-51
2024/04/07 03:12:18;;;;;;;;;;;;;;;16.13;55.75;100947.34;5078070;28;1038;-47
2024/04/07 03:14:43;;;;;;;;;;;;;;;16.30;56.26;100944.41;5069537;28;1268;-47
2024/04/07 03:17:09;;;;;;;;;;;;;;;17.65;54.00;100938.91;5067879;28;1059;-52
2024/04/07 03:19:34;;;;;;;;;;;;;;;17.27;54.58;100952.13;5070406;28;1274;-50
2024/04/07 03:22:00;;;;;;;;;;;;;;;16.75;55.54;100953.91;5058047;28;1071;-47
2024/04/07 03:24:28;;;;;;;;;;;;;;;16.52;55.87;100949.72;5060471;28;1138;-52
2024/04/07 03:26:53;;;;;;;;;;;;;;;16.36;55.70;100959.81;5076863;28;1972;-48
2024/04/07 03:29:19;;;;;;;;;;;;;;;16.29;55.75;100946.34;5077355;28;1051;-51
2024/04/07 03:31:44;;;;;;;;;;;;;;;17.67;53.88;100947.72;5077670;28;1122;-49
2024/04/07 03:34:10;;;;;;;;;;;;;;;17.39;54.22;100958.16;5064413;28;1039;-51
2024/04/07 03:36:35;;;;;;;;;;;;;;;16.83;55.25;100955.28;5077261;28;1043;-50
2024/04/07 03:39:02;;;;;;;;;;;;;;;16.63;55.66;100964.31;5069660;28;1130;-51
2024/04/07 03:41:28;;;;;;;;;;;;;;;16.42;55.65;100956.84;5077619;28;1138;-52
2024/04/07 03:43:53;;;;;;;;;;;;;;;16.32;55.67;100956.78;5074691;28;1194;-52
2024/04/07 03:46:20;;;;;;;;;;;;;;;16.66;55.77;100961.88;5066691;28;1901;-52
2024/04/07 03:48:45;;;;;;;;;;;;;;;17.90;53.10;100959.22;5073944;28;959;-50
2024/04/07 03:51:11;;;;;;;;;;;;;;;17.10;54.91;100961.44;5057699;28;833;-49
2024/04/07 03:53:36;;;;;;;;;;;;;;;16.80;55.36;100977.81;5059857;28;1119;-49
2024/04/07 03:56:02;;;;;;;;;;;;;;;16.61;55.43;100964.59;5059380;28;1096;-51
2024/04/07 03:58:28;;;;;;;;;;;;;;;16.32;55.58;100973.22;5070395;28;1119;-50
2024/04/07 04:00:53;;;;;;;;;;;;;;;16.25;55.81;100978.16;5067061;28;1432;-51
2024/04/07 04:03:19;;;;;;;;;;;;;;;16.13;55.59;100991.25;5070653;28;1248;-50
2024/04/07 04:05:44;;;;;;;;;;;;;;;16.70;55.96;100987.66;5077003;28;1901;-50
2024/04/07 04:08:10;;;;;;;;;;;;;;;18.00;53.44;100984.00;5073770;28;1079;-52
2024/04/07 04:10:39;;;;;;;;;;;;;;;16.72;54.59;100993.72;5066219;28;1064;-51
2024/04/07 04:13:06;;;;;;;;;;;;;;;16.42;52.96;100991.66;5059971;28;1087;-53
2024/04/07 04:15:34;;;;;;;;;;;;;;;16.29;51.77;100984.75;5068008;28;904;-53
2024/04/07 04:17:59;;;;;;;;;;;;;;;16.03;51.29;100995.59;5072607;28;1023;-53
2024/04/07 04:20:25;;;;;;;;;;;;;;;16.10;51.05;101009.03;5066639;28;1128;-52
2024/04/07 04:22:51;;;;;;;;;;;;;;;17.14;53.25;101010.34;5076140;28;1035;-54
2024/04/07 04:25:17;;;;;;;;;;;;;;;16.42;52.77;101017.22;5066025;28;1051;-52
2024/04/07 04:27:42;;;;;;;;;;;;;;;16.83;52.95;101019.31;5060375;28;1973;-52
2024/04/07 04:30:08;;;;;;;;;;;;;;;16.77;53.09;101026.72;5056478;28;1151;-55
2024/04/07 04:32:33;;;;;;;;;;;;;;;16.48;52.07;101025.47;5069168;28;1131;-53
2024/04/07 04:34:59;;;;;;;;;;;;;;;16.29;51.00;101017.69;5066908;28;1083;-51
2024/04/07 04:37:24;;;;;;;;;;;;;;;17.59;52.68;101020.56;5062963;28;1292;-49
2024/04/07 04:39:50;;;;;;;;;;;;;;;16.71;52.66;101018.72;5055374;28;1037;-51
2024/04/07 04:42:15;;;;;;;;;;;;;;;16.47;51.59;101024.63;5063088;28;1078;-51
2024/04/07 04:44:41;;;;;;;;;;;;;;;17.55;52.30;101013.16;5065652;28;1509;-52
2024/04/07 04:47:07;;;;;;;;;;;;;;;17.01;52.58;101014.44;5069872;28;1902;-52
2024/04/07 04:49:33;;;;;;;;;;;;;;;16.56;51.88;101013.97;5066429;28;1186;-50
2024/04/07 04:51:58;;;;;;;;;;;;;;;16.44;50.55;101008.72;5062800;28;1145;-48
2024/04/07 04:54:24;;;;;;;;;;;;;;;17.14;52.01;101016.69;5065577;28;1050;-53
2024/04/07 04:56:49;;;;;;;;;;;;;;;16.92;51.93;101014.16;5069696;28;1074;-50
2024/04/07 04:59:14;;;;;;;;;;;;;;;16.64;51.10;101029.94;5065880;28;1060;-54
2024/04/07 05:01:40;;;;;;;;;;;;;;;16.55;49.67;101020.53;5072122;28;1556;-50
2024/04/07 05:04:05;;;;;;;;;;;;;;;17.30;51.40;101020.28;5059884;28;888;-52
2024/04/07 05:06:31;;;;;;;;;;;;;;;16.72;51.10;101025.88;5071510;28;1909;-50
2024/04/07 05:08:56;;;;;;;;;;;;;;;16.55;50.29;101026.03;5066733;28;1055;-51
2024/04/07 05:11:22;;;;;;;;;;;;;;;16.59;50.15;101028.00;5058064;28;1191;-52
2024/04/07 05:13:47;;;;;;;;;;;;;;;17.16;51.27;101027.41;5066799;28;1181;-52
2024/04/07 05:16:13;;;;;;;;;;;;;;;16.66;50.75;101026.91;5057961;28;1159;-52
2024/04/07 05:18:39;;;;;;;;;;;;;;;16.54;49.93;101025.22;5064646;28;1023;-51
2024/04/07 05:21:05;;;;;;;;;;;;;;;16.77;50.08;101029.44;5062235;28;1043;-50
2024/04/07 05:23:31;;;;;;;;;;;;;;;17.04;51.14;101022.97;5066446;28;1155;-51
2024/04/07 05:25:57;;;;;;;;;;;;;;;16.56;50.71;101027.69;5055499;28;1898;-50
2024/04/07 05:28:23;;;;;;;;;;;;;;;16.50;49.60;101029.59;5042024;28;1402;-51
2024/04/07 05:30:48;;;;;;;;;;;;;;;16.43;49.00;101021.59;5058142;28;1091;-51
2024/04/07 05:33:14;;;;;;;;;;;;;;;17.23;50.45;101019.72;5066184;28;1058;-52
2024/04/07 05:35:39;;;;;;;;;;;;;;;17.00;50.91;101016.38;5055579;28;1087;-48
2024/04/07 05:38:05;;;;;;;;;;;;;;;16.66;50.34;101011.28;5064916;28;1233;-47
2024/04/07 05:40:30;;;;;;;;;;;;;;;17.33;50.69;101014.22;5069819;28;1222;-50
2024/04/07 05:42:56;;;;;;;;;;;;;;;16.95;51.15;101013.59;5065123;28;1055;-52
2024/04/07 05:45:21;;;;;;;;;;;;;;;16.74;50.15;101015.41;5062921;28;1222;-51
2024/04/07 05:47:53;;;;;;;;;;;;;;;16.59;49.58;101017.03;5059393;28;1909;-49
2024/04/07 05:50:19;;;;;;;;;;;;;;;16.48;48.72;101022.72;5076568;28;1071;-51
2024/04/07 05:52:44;;;;;;;;;;;;;;;17.49;50.00;101033.47;5073256;28;904;-50
2024/04/07 05:55:10;;;;;;;;;;;;;;;16.75;50.51;101039.88;5065707;28;1071;-50
2024/04/07 05:57:36;;;;;;;;;;;;;;;16.60;49.63;101037.88;5078769;28;1113;-52
2024/04/07 06:00:02;;;;;;;;;;;;;;;16.50;48.98;101035.09;5077883;28;1023;-48
2024/04/07 06:02:37;;;;;;;;;;;;;;;17.64;49.93;101029.94;5078325;28;1082;-53
2024/04/07 06:05:02;;;;;;;;;;;;;;;16.82;50.28;101034.13;5060068;28;992;-47
2024/04/07 06:07:28;;;;;;;;;;;;;;;16.71;49.58;101032.44;5078734;28;1984;-51
2024/04/07 06:09:53;;;;;;;;;;;;;;;16.48;49.07;101030.94;5065660;28;1030;-49
2024/04/07 06:12:19;;;;;;;;;;;;;;;17.38;49.92;101036.22;5068509;28;1167;-50
2024/04/07 06:14:46;;;;;;;;;;;;;;;16.79;50.33;101031.94;5075442;28;1000;-50
2024/04/07 06:17:12;;;;;;;;;;;;;;;16.63;49.60;101038.44;5061084;28;853;-48
2024/04/07 06:19:38;;;;;;;;;;;;;;;16.51;48.85;101044.13;5062284;28;1131;-50
2024/04/07 06:22:03;;;;;;;;;;;;;;;16.42;48.43;101044.66;5078800;28;1078;-51
2024/04/07 06:24:29;;;;;;;;;;;;;;;16.27;48.12;101039.09;5077884;28;1062;-48
2024/04/07 06:26:54;;;;;;;;;;;;;;;17.47;49.33;101053.00;5068141;28;1977;-48
2024/04/07 06:29:20;;;;;;;;;;;;;;;16.73;49.98;101050.31;5059954;28;884;-47
2024/04/07 06:31:45;;;;;;;;;;;;;;;16.57;49.09;101056.81;5068360;28;1238;-49
2024/04/07 06:34:11;;;;;;;;;;;;;;;16.41;48.50;101058.63;5074735;28;1102;-49
2024/04/07 06:36:36;;;;;;;;;;;;;;;16.89;49.28;101066.88;5058082;28;1131;-50
2024/04/07 06:39:02;;;;;;;;;;;;;;;17.34;49.95;101065.34;5061939;28;1060;-52
2024/04/07 06:41:27;;;;;;;;;;;;;;;16.80;50.05;101066.50;5070005;28;884;-49
2024/04/07 06:43:53;;;;;;;;;;;;;;;17.07;50.08;101074.63;5064371;28;1162;-51
2024/04/07 06:46:18;;;;;;;;;;;;;;;17.23;50.58;101078.25;5067770;28;1918;-53
2024/04/07 06:48:44;;;;;;;;;;;;;;;16.85;49.87;101068.47;5071487;28;1131;-50
2024/04/07 06:51:09;;;;;;;;;;;;;;;16.68;48.94;101074.16;5067946;28;1175;-50
2024/04/07 06:53:34;;;;;;;;;;;;;;;17.53;49.83;101071.19;5072784;28;856;-51
2024/04/07 06:56:00;;;;;;;;;;;;;;;17.03;50.62;101081.75;5066140;28;1162;-51
2024/04/07 06:58:26;;;;;;;;;;;;;;;16.81;49.65;101072.84;5064362;28;1011;-50
2024/04/07 07:00:51;;;;;;;;;;;;;;;16.69;48.96;101084.88;5077635;28;1093;-49
2024/04/07 07:03:17;;;;;;;;;;;;;;;16.54;48.70;101080.13;5077424;28;1047;-55
2024/04/07 07:05:42;;;;;;;;;;;;;;;17.10;49.16;101085.06;5068479;28;1970;-53
2024/04/07 07:08:08;;;;;;;;;;;;;;;17.15;49.95;101086.19;5074905;28;1141;-50
2024/04/07 07:10:34;;;;;;;;;;;;;;;16.75;49.55;101094.78;5067357;28;1091;-52
2024/04/07 07:13:00;;;;;;;;;;;;;;;16.69;48.92;101097.75;5061579;28;1151;-50
2024/04/07 07:15:25;;;;;;;;;;;;;;;16.54;48.55;101101.28;5067378;28;1111;-50
2024/04/07 07:17:51;;;;;;;;;;;;;;;17.02;48.96;101109.50;5074423;28;844;-53
2024/04/07 07:20:16;;;;;;;;;;;;;;;17.64;49.80;101102.25;5067689;28;1113;-51
2024/04/07 07:22:42;;;;;;;;;;;;;;;16.99;50.13;101116.34;5073465;28;1064;-48
2024/04/07 07:25:07;;;;;;;;;;;;;;;16.75;49.42;101114.00;5067628;28;1038;-52
2024/04/07 07:27:33;;;;;;;;;;;;;;;16.64;48.74;101117.78;5073637;28;1910;-53
2024/04/07 07:29:58;;;;;;;;;;;;;;;16.53;48.22;101127.06;5057352;28;1012;-54
2024/04/07 07:32:24;;;;;;;;;;;;;;;16.49;47.66;101126.75;5057100;28;1153;-55
2024/04/07 07:34:49;;;;;;;;;;;;;;;17.63;49.36;101139.09;5057210;28;1531;-51
2024/04/07 07:37:15;;;;;;;;;;;;;;;16.96;50.05;101127.03;5070688;28;1056;-51
2024/04/07 07:39:41;;;;;;;;;;;;;;;16.76;49.24;101132.16;5067007;28;1056;-51
2024/04/07 07:42:06;;;;;;;;;;;;;;;16.67;49.18;101138.41;5072991;28;985;-56
2024/04/07 07:44:32;;;;;;;;;;;;;;;17.49;49.89;101135.19;5067467;28;1192;-53
2024/04/07 07:46:57;;;;;;;;;;;;;;;16.89;50.01;101130.88;5059893;28;1985;-51
2024/04/07 07:49:23;;;;;;;;;;;;;;;16.80;49.01;101126.94;5067275;28;1271;-54
2024/04/07 07:51:48;;;;;;;;;;;;;;;16.70;48.47;101126.88;5070654;28;1079;-53
2024/04/07 07:54:14;;;;;;;;;;;;;;;16.60;48.00;101124.91;5076307;28;1109;-52
2024/04/07 07:56:39;;;;;;;;;;;;;;;16.56;47.24;101137.50;5073212;28;1066;-49
2024/04/07 07:59:05;;;;;;;;;;;;;;;16.50;47.67;101130.34;5057016;28;1083;-51
2024/04/07 08:01:31;;;;;;;;;;;;;;;17.20;49.26;101124.69;5070341;28;1031;-51
2024/04/07 08:03:56;;;;;;;;;;;;;;;16.67;49.51;101133.72;5056776;28;1064;-52
2024/04/07 08:06:22;;;;;;;;;;;;;;;16.60;48.78;101139.44;5062636;28;1914;-50
2024/04/07 08:08:47;;;;;;;;;;;;;;;16.54;47.86;101128.72;5077135;28;1150;-49
2024/04/07 08:11:12;;;;;;;;;;;;;;;16.48;47.55;101130.59;5076822;28;1055;-51
2024/04/07 08:13:38;;;;;;;;;;;;;;;17.50;48.81;101136.88;5076165;28;1039;-51
2024/04/07 08:16:03;;;;;;;;;;;;;;;16.92;49.58;101129.50;5062119;28;1027;-51
2024/04/07 08:18:30;;;;;;;;;;;;;;;16.65;49.17;101130.44;5064278;28;1055;-53
2024/04/07 08:20:55;;;;;;;;;;;;;;;17.82;49.44;101136.66;5076556;28;1126;-50
2024/04/07 08:23:21;;;;;;;;;;;;;;;17.07;50.00;101131.50;5068764;28;1090;-52
2024/04/07 08:25:46;;;;;;;;;;;;;;;16.86;49.75;101141.53;5057077;28;1914;-51
2024/04/07 08:28:12;;;;;;;;;;;;;;;17.47;50.08;101148.41;5075133;28;1039;-52
2024/04/07 08:30:38;;;;;;;;;;;;;;;16.94;49.87;101149.28;5063236;28;1126;-50
2024/04/07 08:33:04;;;;;;;;;;;;;;;16.87;49.12;101154.16;5069101;28;1170;-51
2024/04/07 08:35:29;;;;;;;;;;;;;;;16.85;48.82;101156.38;5069393;28;1151;-53
2024/04/07 08:37:55;;;;;;;;;;;;;;;17.42;49.99;101161.03;5063531;28;1110;-52
2024/04/07 08:40:20;;;;;;;;;;;;;;;16.84;49.95;101157.44;5075596;28;1074;-48
2024/04/07 08:42:46;;;;;;;;;;;;;;;16.75;48.91;101157.94;5068478;28;1146;-53
2024/04/07 08:45:12;;;;;;;;;;;;;;;16.66;48.30;101162.31;5069581;28;1059;-51
2024/04/07 08:47:38;;;;;;;;;;;;;;;16.57;48.02;101150.16;5063001;28;1974;-51
2024/04/07 08:50:04;;;;;;;;;;;;;;;16.81;48.31;101161.56;5075359;28;1140;-52
2024/04/07 08:52:29;;;;;;;;;;;;;;;17.30;49.22;101156.88;5061612;28;1035;-51
2024/04/07 08:54:55;;;;;;;;;;;;;;;16.76;49.52;101154.13;5051605;28;1101;-50
2024/04/07 08:57:20;;;;;;;;;;;;;;;16.69;48.61;101153.53;5063726;28;1254;-51
2024/04/07 08:59:47;;;;;;;;;;;;;;;16.66;47.89;101155.97;5044563;28;1071;-52
2024/04/07 09:02:13;;;;;;;;;;;;;;;16.52;47.51;101152.84;5069090;28;1019;-50
2024/04/07 09:04:38;;;;;;;;;;;;;;;17.89;48.73;101153.75;5067481;28;1012;-52
2024/04/07 09:07:04;;;;;;;;;;;;;;;17.06;49.87;101152.66;5069037;28;1976;-51
2024/04/07 09:09:30;;;;;;;;;;;;;;;16.80;49.16;101153.56;5069146;28;1024;-52
2024/04/07 09:11:56;;;;;;;;;;;;;;;16.70;48.61;101155.16;5055930;28;1115;-54
2024/04/07 09:14:21;;;;;;;;;;;;;;;16.52;48.15;101161.09;5069602;28;1068;-54
2024/04/07 09:16:46;;;;;;;;;;;;;;;16.56;47.58;101159.47;5071840;28;1059;-51
2024/04/07 09:19:12;;;;;;;;;;;;;;;16.42;47.38;101165.44;5078046;28;1141;-52
2024/04/07 09:21:43;;;;;;;;;;;;;;;17.34;48.45;101183.56;5059580;28;924;-51
2024/04/07 09:24:09;;;;;;;;;;;;;;;16.99;49.44;101168.56;5059468;28;1048;-51
2024/04/07 09:26:34;;;;;;;;;;;;;;;16.76;48.94;101175.28;5059427;28;1992;-51
2024/04/07 09:29:00;;;;;;;;;;;;;;;17.16;49.63;101167.53;5062333;28;1035;-53
2024/04/07 09:31:25;;;;;;;;;;;;;;;17.15;50.08;101171.38;5042394;28;1026;-51
2024/04/07 09:33:51;;;;;;;;;;;;;;;16.86;49.36;101163.53;5055404;28;1080;-52
2024/04/07 09:36:16;;;;;;;;;;;;;;;16.76;48.32;101170.59;5066295;28;1079;-50
2024/04/07 09:38:42;;;;;;;;;;;;;;;16.68;47.85;101170.28;5066071;28;1109;-53
2024/04/07 09:41:07;;;;;;;;;;;;;;;17.15;48.79;101161.19;5061568;28;1032;-49
2024/04/07 09:43:33;;;;;;;;;;;;;;;17.34;49.63;101158.81;5041894;28;1068;-52
2024/04/07 09:45:58;;;;;;;;;;;;;;;16.92;49.41;101156.97;5079355;28;1975;-53
2024/04/07 09:48:24;;;;;;;;;;;;;;;16.83;48.55;101164.03;5061282;28;1118;-53
2024/04/07 09:50:59;;;;;;;;;;;;;;;16.68;48.25;101173.03;5073333;28;1038;-50
2024/04/07 09:53:44;;;;;;;;;;;;;;;16.51;47.71;101164.91;5046213;28;1056;-51
2024/04/07 09:56:10;;;;;;;;;;;;;;;17.59;48.85;101166.31;5059634;28;1071;-47
2024/04/07 09:58:36;;;;;;;;;;;;;;;17.08;49.83;101182.59;5075725;28;1039;-47
2024/04/07 10:01:02;;;;;;;;;;;;;;;16.88;49.21;101183.28;5034274;28;1135;-48
2024/04/07 10:03:28;;;;;;;;;;;;;;;16.83;48.43;101180.50;5058924;28;1476;-51
2024/04/07 10:05:53;;;;;;;;;;;;;;;16.62;48.04;101196.03;5067668;28;1901;-52
2024/04/07 10:08:19;;;;;;;;;;;;;;;16.67;47.78;101204.31;5078330;28;1094;-51
2024/04/07 10:10:44;;;;;;;;;;;;;;;16.58;47.58;101217.69;5068284;28;1169;-51
2024/04/07 10:13:10;;;;;;;;;;;;;;;17.75;48.99;101235.97;5041176;28;1143;-55
2024/04/07 10:15:36;;;;;;;;;;;;;;;17.00;49.70;101246.28;5059554;28;1020;-53
2024/04/07 10:18:11;;;;;;;;;;;;;;;16.74;48.61;101255.16;5070782;28;1187;-54
2024/04/07 10:20:38;;;;;;;;;;;;;;;16.59;47.93;101258.63;5066672;28;1155;-51
2024/04/07 10:23:06;;;;;;;;;;;;;;;16.52;47.27;101259.91;5077327;28;1075;-54
2024/04/07 10:25:34;;;;;;;;;;;;;;;16.55;47.41;101252.00;5061020;28;1039;-54
2024/04/07 10:28:00;;;;;;;;;;;;;;;17.15;48.86;101248.31;5072481;28;1937;-53
2024/04/07 10:30:26;;;;;;;;;;;;;;;16.77;48.56;101248.31;5059284;28;1123;-53
2024/04/07 10:32:51;;;;;;;;;;;;;;;16.62;47.93;101256.44;5077499;28;1118;-51
2024/04/07 10:35:22;;;;;;;;;;;;;;;16.49;47.23;101265.94;5065534;28;1131;-50
2024/04/07 10:37:49;;;;;;;;;;;;;;;16.39;46.74;101270.22;5041156;28;1099;-52
2024/04/07 10:40:15;;;;;;;;;;;;;;;17.56;48.37;101248.53;5058701;28;1090;-52
2024/04/07 10:42:41;;;;;;;;;;;;;;;16.79;48.95;101245.28;5065322;28;852;-54
2024/04/07 10:45:07;;;;;;;;;;;;;;;16.55;48.06;101256.63;5078288;28;1015;-53
2024/04/07 10:47:32;;;;;;;;;;;;;;;17.09;48.40;101256.53;5070506;28;1930;-54
2024/04/07 10:49:58;;;;;;;;;;;;;;;17.26;49.34;101239.88;5071097;28;1051;-53
2024/04/07 10:52:26;;;;;;;;;;;;;;;16.83;48.96;101247.28;5078089;28;1027;-53
2024/04/07 10:54:55;;;;;;;;;;;;;;;16.65;48.04;101256.75;5077792;28;1125;-54
2024/04/07 10:57:21;;;;;;;;;;;;;;;16.57;47.60;101265.47;5065551;28;1051;-55
2024/04/07 10:59:46;;;;;;;;;;;;;;;17.86;48.60;101263.47;5077253;28;1051;-56
2024/04/07 11:02:12;;;;;;;;;;;;;;;16.98;49.50;101249.31;5057691;28;1024;-55
2024/04/07 11:04:37;;;;;;;;;;;;;;;16.79;48.56;101256.28;5053527;28;1092;-53
2024/04/07 11:07:03;;;;;;;;;;;;;;;16.57;47.94;101248.97;5064725;28;1897;-54
2024/04/07 11:09:31;;;;;;;;;;;;;;;17.68;48.68;101268.34;5072186;28;1124;-53
2024/04/07 11:11:57;;;;;;;;;;;;;;;17.18;49.43;101259.63;5077721;28;1146;-56
2024/04/07 11:14:27;;;;;;;;;;;;;;;16.83;48.77;101257.41;5076671;28;991;-56
2024/04/07 11:16:53;;;;;;;;;;;;;;;16.80;47.76;101260.69;5066011;28;1067;-56
2024/04/07 11:19:21;;;;;;;;;;;;;;;16.60;47.29;101256.69;5075014;28;876;-55
2024/04/07 11:21:47;;;;;;;;;;;;;;;17.58;48.28;101262.81;5066581;28;1075;-55
2024/04/07 11:24:12;;;;;;;;;;;;;;;16.96;48.75;101261.66;5063747;28;1155;-53
2024/04/07 11:26:38;;;;;;;;;;;;;;;16.73;48.19;101261.75;5077167;28;1980;-55
2024/04/07 11:29:04;;;;;;;;;;;;;;;17.19;48.28;101257.69;5075255;28;1031;-55
2024/04/07 11:31:29;;;;;;;;;;;;;;;17.07;48.42;101263.41;5060797;28;983;-55
2024/04/07 11:33:55;;;;;;;;;;;;;;;16.73;48.23;101261.75;5039773;28;1309;-55
2024/04/07 11:36:20;;;;;;;;;;;;;;;16.69;47.37;101273.50;5046153;28;1321;-52
2024/04/07 11:38:46;;;;;;;;;;;;;;;17.58;48.19;101268.31;5056862;28;1392;-55
2024/04/07 11:41:11;;;;;;;;;;;;;;;17.08;49.09;101268.63;5043433;28;1116;-52
2024/04/07 11:43:37;;;;;;;;;;;;;;;16.74;48.35;101277.13;5048890;28;1017;-56
2024/04/07 11:46:03;;;;;;;;;;;;;;;16.72;47.45;101273.00;5067655;28;1970;-49
2024/04/07 11:48:28;;;;;;;;;;;;;;;16.54;46.88;101272.28;5028116;28;1317;-54
2024/04/07 11:50:54;;;;;;;;;;;;;;;16.46;46.52;101274.69;5037033;28;1246;-56
2024/04/07 11:53:19;;;;;;;;;;;;;;;16.49;46.08;101279.66;5056091;28;1336;-56
2024/04/07 11:55:45;;;;;;;;;;;;;;;17.34;47.37;101273.44;5059358;28;1009;-54
2024/04/07 11:58:11;;;;;;;;;;;;;;;17.56;48.92;101287.84;5072884;28;1158;-54
2024/04/07 12:00:36;;;;;;;;;;;;;;;16.91;49.30;101277.03;5069645;28;1055;-54
2024/04/07 12:03:02;;;;;;;;;;;;;;;16.79;48.55;101294.72;5057600;28;1215;-55
2024/04/07 12:05:27;;;;;;;;;;;;;;;16.68;47.61;101294.66;5050681;28;1316;-54
2024/04/07 12:07:53;;;;;;;;;;;;;;;16.54;47.19;101296.19;5063533;28;1909;-55
2024/04/07 12:10:18;;;;;;;;;;;;;;;17.12;48.21;101290.06;5076165;28;1136;-56
2024/04/07 12:12:44;;;;;;;;;;;;;;;17.07;48.90;101312.84;5076556;28;1082;-55
2024/04/07 12:15:09;;;;;;;;;;;;;;;16.72;48.52;101306.78;5063580;28;1043;-56
2024/04/07 12:17:35;;;;;;;;;;;;;;;16.62;47.78;101301.19;5064098;28;1083;-56
2024/04/07 12:20:01;;;;;;;;;;;;;;;17.69;48.40;101303.03;5057993;28;1195;-56
2024/04/07 12:22:34;;;;;;;;;;;;;;;16.99;49.17;101300.41;5069281;28;1035;-53
2024/04/07 12:24:59;;;;;;;;;;;;;;;16.73;48.47;101310.34;5068842;28;1056;-56
2024/04/07 12:27:24;;;;;;;;;;;;;;;18.05;48.71;101307.88;5070824;28;1906;-54
2024/04/07 12:29:50;;;;;;;;;;;;;;;17.20;49.58;101306.06;5076215;28;1056;-56
2024/04/07 12:32:15;;;;;;;;;;;;;;;16.88;48.73;101309.66;5056806;28;930;-56
2024/04/07 12:34:41;;;;;;;;;;;;;;;16.80;47.77;101301.88;5063329;28;1162;-55
2024/04/07 12:37:06;;;;;;;;;;;;;;;16.70;47.33;101306.19;5063036;28;1160;-53
2024/04/07 12:39:32;;;;;;;;;;;;;;;17.65;48.44;101309.34;5076248;28;1055;-56
2024/04/07 12:41:58;;;;;;;;;;;;;;;17.00;49.10;101313.06;5075761;28;1055;-55
2024/04/07 12:44:23;;;;;;;;;;;;;;;16.81;48.31;101320.03;5068327;28;834;-57
2024/04/07 12:46:49;;;;;;;;;;;;;;;17.67;48.58;101318.13;5069037;28;1933;-56